Time;durP1;ratioP1;P1;durP2;ratioP2;P2;SDS_P1;SDS_P2;PMS_P1;PMS_P2;Temp;Humidity;BMP_temperature;BMP_pressure;BME280_temperature;BME280_humidity;BME280_pressure;Samples;Min_cycle;Max_cycle;Signal;HPM_P1;HPM_P2
2022/03/29 00:01:04;;;;;;;6.70;6.40;;;;;;;6.04;40.29;100564.03;5043602;28;20029;-62
2022/03/29 00:03:29;;;;;;;6.40;6.10;;;;;;;6.02;40.25;100547.53;5034421;28;20481;-62
2022/03/29 00:05:55;;;;;;;6.75;6.45;;;;;;;5.94;40.86;100542.97;5034143;28;20032;-62
2022/03/29 00:08:20;;;;;;;6.30;6.00;;;;;;;6.05;40.09;100550.72;5036687;28;20056;-62
2022/03/29 00:10:46;;;;;;;6.20;5.90;;;;;;;5.89;40.67;100544.38;5035250;28;20029;-62
2022/03/29 00:13:12;;;;;;;6.20;5.90;;;;;;;5.89;40.27;100521.50;5035652;28;20468;-62
2022/03/29 00:15:37;;;;;;;6.43;6.13;;;;;;;5.90;40.53;100535.50;5051631;28;20460;-62
2022/03/29 00:18:03;;;;;;;6.03;5.72;;;;;;;5.75;41.33;100528.06;5049516;28;20018;-61
2022/03/29 00:20:29;;;;;;;6.32;6.03;;;;;;;5.53;41.90;100518.72;5034234;28;20520;-61
2022/03/29 00:22:54;;;;;;;6.40;6.10;;;;;;;5.51;43.00;100528.56;5036685;28;20024;-61
2022/03/29 00:25:20;;;;;;;6.47;6.18;;;;;;;5.35;43.55;100533.53;5053714;28;20025;-62
2022/03/29 00:27:46;;;;;;;6.05;5.75;;;;;;;5.22;43.95;100533.88;5054179;28;20020;-62
2022/03/29 00:30:12;;;;;;;6.40;6.10;;;;;;;5.07;44.44;100506.34;5033898;28;20053;-61
2022/03/29 00:32:41;;;;;;;6.25;5.95;;;;;;;5.04;45.07;100525.00;5038548;28;20469;-61
2022/03/29 00:35:11;;;;;;;6.30;6.00;;;;;;;4.99;46.46;100522.81;5053883;28;20021;-61
2022/03/29 00:37:42;;;;;;;6.40;6.10;;;;;;;4.93;46.63;100510.22;5027469;28;20060;-62
2022/03/29 00:40:10;;;;;;;6.25;5.95;;;;;;;4.95;46.54;100504.81;5025849;28;20017;-61
2022/03/29 00:42:35;;;;;;;6.10;5.80;;;;;;;4.74;47.30;100507.56;5038164;28;20021;-61
2022/03/29 00:45:01;;;;;;;6.50;6.20;;;;;;;4.75;47.86;100503.97;5035448;28;20029;-61
2022/03/29 00:47:27;;;;;;;6.32;6.03;;;;;;;4.65;48.85;100505.78;5039281;28;20025;-62
2022/03/29 00:49:52;;;;;;;6.15;5.85;;;;;;;4.52;49.44;100499.94;5033208;28;20385;-62
2022/03/29 00:52:19;;;;;;;6.40;6.10;;;;;;;4.51;49.47;100487.78;5019691;28;20025;-62
2022/03/29 00:54:46;;;;;;;6.25;5.95;;;;;;;4.51;49.79;100491.22;5013546;28;20481;-60
2022/03/29 00:57:11;;;;;;;6.53;6.22;;;;;;;4.41;50.05;100485.97;5038204;28;20504;-61
2022/03/29 00:59:39;;;;;;;6.50;6.20;;;;;;;4.30;51.22;100490.50;5052288;28;20033;-61
2022/03/29 01:02:05;;;;;;;6.32;6.03;;;;;;;4.29;50.78;100491.47;5042142;28;20028;-61
2022/03/29 01:04:31;;;;;;;6.00;5.70;;;;;;;4.15;51.01;100487.44;5053239;28;20025;-61
2022/03/29 01:06:58;;;;;;;6.47;6.18;;;;;;;4.12;50.90;100479.84;5027159;28;20453;-61
2022/03/29 01:09:28;;;;;;;6.82;6.53;;;;;;;4.19;50.45;100480.97;5043835;28;20033;-61
2022/03/29 01:11:54;;;;;;;6.20;5.90;;;;;;;4.01;51.59;100480.75;5052991;28;20071;-62
2022/03/29 01:14:21;;;;;;;6.55;6.25;;;;;;;3.97;51.83;100476.75;5035440;28;20504;-62
2022/03/29 01:19:31;;;;;;;5.68;5.47;;;;;;;3.92;51.77;100455.31;5027073;28;20059;-62
2022/03/29 01:22:01;;;;;;;6.25;5.95;;;;;;;3.97;51.13;100475.94;5013352;28;20038;-63
2022/03/29 01:24:28;;;;;;;6.03;5.72;;;;;;;3.96;51.74;100472.44;5044006;28;20029;-62
2022/03/29 01:26:59;;;;;;;6.00;5.70;;;;;;;4.00;51.58;100471.22;5032672;28;20021;-61
2022/03/29 01:29:24;;;;;;;6.05;5.75;;;;;;;3.96;51.67;100474.25;5042535;28;20029;-62
2022/03/29 01:31:51;;;;;;;6.28;5.97;;;;;;;4.04;51.73;100469.16;5041745;28;20511;-61
2022/03/29 01:34:20;;;;;;;6.20;5.90;;;;;;;3.94;51.83;100468.31;5038855;28;20101;-61
2022/03/29 01:36:46;;;;;;;5.97;5.68;;;;;;;3.90;52.16;100474.78;5043234;28;20040;-61
2022/03/29 01:39:12;;;;;;;6.10;5.80;;;;;;;3.97;51.83;100465.44;5046044;28;20020;-61
2022/03/29 01:41:38;;;;;;;6.30;6.00;;;;;;;3.91;51.65;100464.16;5039861;28;20505;-62
2022/03/29 01:44:09;;;;;;;5.85;5.57;;;;;;;3.92;51.53;100454.50;5032484;28;20030;-61
2022/03/29 01:46:34;;;;;;;6.18;5.88;;;;;;;3.90;52.02;100459.88;5026377;28;20033;-61
2022/03/29 01:49:01;;;;;;;6.00;5.70;;;;;;;3.90;51.41;100452.00;5034811;28;20027;-62
2022/03/29 01:51:27;;;;;;;6.00;5.70;;;;;;;3.79;52.49;100444.22;5032411;28;20036;-62
2022/03/29 01:53:54;;;;;;;6.13;5.82;;;;;;;3.71;53.08;100444.88;5032654;28;20052;-62
2022/03/29 01:56:20;;;;;;;5.93;5.63;;;;;;;3.57;53.59;100442.63;5041512;28;20051;-62
2022/03/29 01:58:45;;;;;;;6.10;5.80;;;;;;;3.53;54.03;100436.00;5033457;28;20029;-62
2022/03/29 02:01:11;;;;;;;6.45;6.15;;;;;;;3.48;54.51;100443.41;5033802;28;20025;-61
2022/03/29 02:03:36;;;;;;;6.22;5.93;;;;;;;3.43;54.92;100437.72;5018205;28;20117;-61
2022/03/29 02:06:02;;;;;;;6.45;6.15;;;;;;;3.40;55.13;100430.13;5032055;28;20106;-62
2022/03/29 02:08:28;;;;;;;6.20;5.90;;;;;;;3.46;54.91;100429.63;5032618;28;20041;-61
2022/03/29 02:10:53;;;;;;;6.13;5.82;;;;;;;3.41;55.35;100430.00;5032986;28;20030;-62
2022/03/29 02:13:19;;;;;;;6.53;6.22;;;;;;;3.31;56.30;100421.25;5041833;28;20400;-61
2022/03/29 02:15:45;;;;;;;6.05;5.75;;;;;;;3.19;56.61;100417.88;5032550;28;20021;-61
2022/03/29 02:18:11;;;;;;;6.07;5.78;;;;;;;3.18;56.47;100425.88;5044111;28;20044;-62
2022/03/29 02:20:36;;;;;;;6.10;5.80;;;;;;;3.06;57.28;100396.28;5031883;28;20030;-62
2022/03/29 02:23:07;;;;;;;6.05;5.75;;;;;;;3.10;57.42;100405.56;5043661;28;20057;-60
2022/03/29 02:25:33;;;;;;;6.05;5.75;;;;;;;3.22;57.22;100409.75;5051685;28;20110;-61
2022/03/29 02:27:59;;;;;;;6.03;5.72;;;;;;;3.20;56.38;100411.66;5051611;28;20025;-62
2022/03/29 02:30:25;;;;;;;6.25;5.95;;;;;;;3.12;57.11;100413.28;5028603;28;20026;-61
2022/03/29 02:32:51;;;;;;;5.70;5.50;;;;;;;3.09;57.87;100410.94;5045328;28;20112;-62
2022/03/29 02:35:16;;;;;;;6.20;5.90;;;;;;;3.11;57.39;100416.88;5040866;28;20025;-62
2022/03/29 02:37:42;;;;;;;6.20;5.90;;;;;;;2.99;58.58;100406.44;5033273;28;20468;-61
2022/03/29 02:40:09;;;;;;;5.70;5.50;;;;;;;2.97;58.77;100407.53;5032430;28;20105;-61
2022/03/29 02:42:47;;;;;;;6.07;5.78;;;;;;;2.93;59.00;100404.34;5046780;28;20435;-61
2022/03/29 02:45:15;;;;;;;5.78;5.57;;;;;;;2.90;60.27;100403.78;5037345;28;20022;-61
2022/03/29 02:47:49;;;;;;;5.80;5.60;;;;;;;2.87;60.29;100396.19;5044458;28;20032;-62
2022/03/29 02:50:16;;;;;;;6.00;5.70;;;;;;;2.94;60.03;100400.78;5026362;28;20112;-62
2022/03/29 02:52:47;;;;;;;5.65;5.45;;;;;;;2.85;59.67;100395.47;5051699;28;20071;-61
2022/03/29 02:55:14;;;;;;;6.18;5.88;;;;;;;2.78;59.96;100393.34;5051353;28;20031;-62
2022/03/29 02:57:39;;;;;;;5.75;5.53;;;;;;;2.76;59.72;100389.19;5046975;28;20129;-62
2022/03/29 03:00:06;;;;;;;5.57;5.38;;;;;;;2.74;60.27;100391.13;5031324;28;20024;-62
2022/03/29 03:02:34;;;;;;;6.13;5.82;;;;;;;2.80;59.21;100395.03;5038968;28;20040;-61
2022/03/29 03:05:00;;;;;;;6.45;6.15;;;;;;;2.82;59.82;100396.56;5034681;28;20151;-61
2022/03/29 03:07:27;;;;;;;6.03;5.72;;;;;;;2.68;59.73;100395.09;5034382;28;20035;-61
2022/03/29 03:09:53;;;;;;;6.45;6.15;;;;;;;2.61;60.54;100400.97;5051533;28;20061;-62
2022/03/29 03:12:19;;;;;;;6.25;5.95;;;;;;;2.58;60.58;100396.81;5034478;28;20068;-61
2022/03/29 03:14:44;;;;;;;6.15;5.85;;;;;;;2.53;60.88;100406.00;5030884;28;20056;-62
2022/03/29 03:17:10;;;;;;;5.95;5.68;;;;;;;2.50;61.33;100399.22;5031352;28;20030;-63
2022/03/29 03:19:36;;;;;;;6.15;5.85;;;;;;;2.51;61.57;100408.75;5034022;28;20017;-61
2022/03/29 03:22:01;;;;;;;5.85;5.63;;;;;;;2.46;60.81;100408.28;5049037;28;20035;-62
2022/03/29 03:24:27;;;;;;;6.45;6.15;;;;;;;2.46;61.31;100403.88;5042056;28;20938;-61
2022/03/29 03:26:52;;;;;;;5.70;5.50;;;;;;;2.48;60.49;100408.97;5039856;28;20060;-61
2022/03/29 03:29:18;;;;;;;6.00;5.70;;;;;;;2.46;61.12;100406.50;5035262;28;20109;-62
2022/03/29 03:31:43;;;;;;;6.10;5.80;;;;;;;2.56;60.38;100408.34;5043603;28;20480;-62
2022/03/29 03:34:09;;;;;;;6.43;6.13;;;;;;;2.63;61.06;100401.66;5045972;28;20029;-61
2022/03/29 03:36:34;;;;;;;6.20;5.90;;;;;;;2.55;60.63;100399.66;5048548;28;20029;-60
2022/03/29 03:38:59;;;;;;;5.93;5.63;;;;;;;2.53;60.28;100395.53;5039208;28;20121;-62
2022/03/29 03:41:25;;;;;;;6.15;5.85;;;;;;;2.49;60.69;100397.53;5037614;28;20026;-62
2022/03/29 03:43:50;;;;;;;6.18;5.88;;;;;;;2.49;60.77;100392.31;5045164;28;20033;-62
2022/03/29 03:46:16;;;;;;;6.10;5.80;;;;;;;2.51;61.40;100397.44;5048904;28;20060;-61
2022/03/29 03:48:41;;;;;;;6.05;5.75;;;;;;;2.44;61.04;100390.09;5038458;28;20032;-61
2022/03/29 03:51:07;;;;;;;6.80;6.47;;;;;;;2.42;61.62;100385.91;5015403;28;20041;-62
2022/03/29 03:53:33;;;;;;;5.88;5.60;;;;;;;2.35;61.61;100384.75;5035065;28;20056;-61
2022/03/29 03:55:59;;;;;;;5.82;5.60;;;;;;;2.37;61.88;100399.41;5033911;28;20396;-62
2022/03/29 03:58:24;;;;;;;6.38;6.07;;;;;;;2.42;61.22;100391.16;5030983;28;20033;-61
2022/03/29 04:00:50;;;;;;;7.03;6.63;;;;;;;2.59;60.30;100387.16;5033127;28;20034;-62
2022/03/29 04:03:16;;;;;;;6.15;5.85;;;;;;;2.70;59.38;100385.31;5023141;28;20021;-61
2022/03/29 04:05:41;;;;;;;6.10;5.80;;;;;;;2.68;60.42;100383.78;5034811;28;20527;-61
2022/03/29 04:08:07;;;;;;;6.55;6.25;;;;;;;3.08;58.51;100396.16;5039713;28;20029;-61
2022/03/29 04:10:33;;;;;;;5.50;5.30;;;;;;;3.26;57.64;100397.22;5039453;28;20025;-62
2022/03/29 04:13:04;;;;;;;5.75;5.47;;;;;;;3.45;57.63;100394.69;5044463;28;20052;-61
2022/03/29 04:15:30;;;;;;;5.72;5.50;;;;;;;3.17;59.37;100395.38;5035213;28;20024;-62
2022/03/29 04:17:57;;;;;;;6.80;6.47;;;;;;;3.46;57.59;100395.53;5044931;28;20029;-61
2022/03/29 04:20:22;;;;;;;6.07;5.78;;;;;;;3.78;57.31;100392.72;5033633;28;20638;-61
2022/03/29 04:22:48;;;;;;;5.80;5.60;;;;;;;3.64;56.99;100398.34;5038163;28;20037;-62
2022/03/29 04:25:13;;;;;;;6.40;6.10;;;;;;;3.93;56.99;100387.91;5033984;28;20071;-62
2022/03/29 04:27:39;;;;;;;6.22;5.93;;;;;;;4.02;56.34;100392.34;5033605;28;20091;-60
2022/03/29 04:30:05;;;;;;;6.28;5.97;;;;;;;4.27;54.87;100386.59;5044644;28;20029;-62
2022/03/29 04:32:31;;;;;;;6.20;5.90;;;;;;;4.14;55.61;100383.38;5037547;28;20025;-61
2022/03/29 04:34:56;;;;;;;7.22;6.82;;;;;;;4.54;53.87;100385.88;5048978;28;20081;-59
2022/03/29 04:37:24;;;;;;;6.80;6.50;;;;;;;6.18;50.32;100392.34;5028879;28;20049;-61
2022/03/29 04:39:50;;;;;;;8.23;7.82;;;;;;;7.09;47.09;100384.19;5035856;28;20576;-61
2022/03/29 04:42:18;;;;;;;6.85;6.55;;;;;;;9.52;42.07;100392.63;5038924;28;20029;-62
2022/03/29 04:44:43;;;;;;;6.30;6.00;;;;;;;9.40;40.32;100397.44;5037376;28;20499;-61
2022/03/29 04:47:09;;;;;;;6.28;5.97;;;;;;;6.78;45.42;100394.34;5063033;28;20028;-62
2022/03/29 04:49:34;;;;;;;7.07;6.78;;;;;;;7.93;44.50;100394.81;5036967;28;20040;-61
2022/03/29 04:52:00;;;;;;;7.18;6.88;;;;;;;5.88;47.69;100393.50;5044200;28;20480;-61
2022/03/29 04:54:25;;;;;;;6.90;6.60;;;;;;;5.66;48.28;100393.91;5032415;28;20036;-61
2022/03/29 04:56:51;;;;;;;6.95;6.65;;;;;;;6.54;46.83;100392.38;5035929;28;20080;-62
2022/03/29 04:59:17;;;;;;;6.50;6.20;;;;;;;5.89;47.64;100386.41;5032970;28;20445;-60
2022/03/29 05:01:43;;;;;;;6.85;6.55;;;;;;;5.90;49.47;100396.78;5027531;28;20480;-61
2022/03/29 05:04:11;;;;;;;7.53;7.13;;;;;;;6.22;47.80;100379.69;5041957;28;20032;-60
2022/03/29 05:06:37;;;;;;;6.63;6.32;;;;;;;7.28;45.56;100383.16;5042269;28;20340;-62
2022/03/29 05:09:03;;;;;;;8.07;7.68;;;;;;;6.70;47.15;100389.84;5035227;28;20041;-62
2022/03/29 05:11:29;;;;;;;6.13;5.82;;;;;;;7.04;46.86;100391.72;5026832;28;20032;-67
2022/03/29 05:13:54;;;;;;;7.13;6.82;;;;;;;7.00;47.50;100382.47;5026848;28;20037;-68
2022/03/29 05:16:20;;;;;;;6.60;6.30;;;;;;;6.04;47.76;100393.69;5038141;28;20028;-68
2022/03/29 05:18:46;;;;;;;6.50;6.20;;;;;;;5.42;50.55;100389.13;5033877;28;20021;-68
2022/03/29 05:21:12;;;;;;;6.70;6.40;;;;;;;6.16;48.69;100389.03;5029673;28;20100;-67
2022/03/29 05:23:39;;;;;;;6.00;5.78;;;;;;;7.16;46.16;100387.84;5036334;28;20035;-67
2022/03/29 05:26:04;;;;;;;6.40;6.10;;;;;;;7.35;44.96;100381.53;5033885;28;20037;-67
2022/03/29 05:28:30;;;;;;;6.70;6.40;;;;;;;6.54;46.13;100379.19;5030086;28;20041;-67
2022/03/29 05:30:55;;;;;;;5.93;5.70;;;;;;;6.93;45.64;100380.47;5038411;28;20017;-67
2022/03/29 05:33:21;;;;;;;6.68;6.38;;;;;;;7.33;44.72;100381.66;5035276;28;20472;-68
2022/03/29 05:35:47;;;;;;;6.15;5.85;;;;;;;6.70;46.31;100368.75;5022897;28;20091;-69
2022/03/29 05:38:12;;;;;;;6.07;5.78;;;;;;;6.85;46.07;100363.75;5031266;28;20087;-69
2022/03/29 05:40:38;;;;;;;6.20;5.90;;;;;;;5.84;48.19;100371.06;5035086;28;20071;-68
2022/03/29 05:43:10;;;;;;;6.25;5.95;;;;;;;7.26;45.25;100374.53;5070484;28;20029;-68
2022/03/29 05:45:36;;;;;;;6.20;5.90;;;;;;;7.05;45.86;100367.00;5027814;28;20026;-67
2022/03/29 05:50:46;;;;;;;6.35;6.05;;;;;;;6.82;45.57;100367.50;5025002;28;20153;-67
2022/03/29 05:53:12;;;;;;;6.18;5.88;;;;;;;7.85;43.77;100363.06;5037907;28;20431;-67
2022/03/29 05:55:37;;;;;;;5.82;5.63;;;;;;;6.48;47.03;100356.06;5034203;28;20031;-67
2022/03/29 05:58:03;;;;;;;7.15;6.82;;;;;;;6.44;46.99;100360.78;5033190;28;20412;-68
2022/03/29 06:00:30;;;;;;;6.43;6.13;;;;;;;8.37;43.00;100362.03;5023506;28;20518;-68
2022/03/29 06:02:56;;;;;;;6.55;6.25;;;;;;;7.82;43.27;100366.03;5031997;28;20097;-68
2022/03/29 06:05:22;;;;;;;6.00;5.80;;;;;;;8.82;41.59;100366.81;5031542;28;20040;-67
2022/03/29 06:07:47;;;;;;;6.70;6.40;;;;;;;8.12;43.60;100351.41;5034249;28;20091;-68
2022/03/29 06:10:13;;;;;;;6.63;6.32;;;;;;;9.04;40.51;100355.56;5031641;28;20032;-68
2022/03/29 06:12:39;;;;;;;6.28;5.97;;;;;;;11.04;38.06;100364.44;5032218;28;20029;-68
2022/03/29 06:15:08;;;;;;;6.05;5.82;;;;;;;11.07;37.19;100355.28;5033418;28;20033;-69
2022/03/29 06:17:34;;;;;;;6.55;6.25;;;;;;;10.75;37.18;100356.44;5029148;28;20488;-68
2022/03/29 06:20:03;;;;;;;6.50;6.20;;;;;;;11.26;37.75;100357.41;5031685;28;20111;-67
2022/03/29 06:22:30;;;;;;;6.53;6.22;;;;;;;10.35;38.34;100352.28;5038401;28;20477;-67
2022/03/29 06:24:55;;;;;;;6.50;6.20;;;;;;;10.14;39.00;100364.34;5040099;28;20036;-68
2022/03/29 06:27:21;;;;;;;6.50;6.20;;;;;;;10.44;38.39;100348.56;5039419;28;20021;-68
2022/03/29 06:29:46;;;;;;;6.60;6.30;;;;;;;11.40;37.34;100355.75;5028412;28;20079;-67
2022/03/29 06:32:12;;;;;;;6.60;6.30;;;;;;;11.07;37.09;100345.47;5032167;28;20056;-68
2022/03/29 06:34:37;;;;;;;6.78;6.47;;;;;;;10.29;38.44;100350.34;5033786;28;20025;-67
2022/03/29 06:37:03;;;;;;;6.32;6.03;;;;;;;9.24;40.20;100355.16;5033638;28;20064;-68
2022/03/29 06:39:30;;;;;;;6.90;6.60;;;;;;;11.24;37.10;100335.53;5023451;28;21394;-68
2022/03/29 06:41:56;;;;;;;6.60;6.30;;;;;;;11.57;37.39;100348.41;5038380;28;20033;-67
2022/03/29 06:44:22;;;;;;;7.25;6.95;;;;;;;11.26;37.79;100349.44;5030963;28;20025;-68
2022/03/29 06:46:49;;;;;;;6.50;6.20;;;;;;;12.11;35.83;100342.69;5037318;28;20044;-68
2022/03/29 06:49:15;;;;;;;7.30;7.00;;;;;;;12.50;35.10;100344.91;5038768;28;20040;-67
2022/03/29 06:51:41;;;;;;;6.53;6.22;;;;;;;11.26;37.62;100344.13;5041678;28;20033;-67
2022/03/29 06:54:07;;;;;;;6.53;6.22;;;;;;;11.95;35.63;100338.44;5033833;28;20057;-67
2022/03/29 06:56:32;;;;;;;6.43;6.13;;;;;;;11.92;36.00;100340.66;5033464;28;20081;-67
2022/03/29 06:59:00;;;;;;;7.15;6.85;;;;;;;12.39;35.95;100337.44;5039066;28;20131;-67
2022/03/29 07:01:26;;;;;;;7.10;6.80;;;;;;;12.17;35.34;100341.94;5032990;28;20080;-67
2022/03/29 07:03:51;;;;;;;6.40;6.10;;;;;;;11.25;37.55;100336.34;5023230;28;20435;-67
2022/03/29 07:06:17;;;;;;;7.00;6.70;;;;;;;12.49;35.37;100331.81;5035147;28;20040;-68
2022/03/29 07:11:16;;;;;;;7.10;6.80;;;;;;;12.27;36.35;100320.38;5041228;28;20572;-67
2022/03/29 07:11:28;;;;;;;6.90;6.60;;;;;;;12.73;35.26;100318.09;5040384;28;20079;-68
2022/03/29 07:13:53;;;;;;;7.50;7.20;;;;;;;12.92;35.05;100320.03;5030913;28;20052;-68
2022/03/29 07:16:20;;;;;;;7.00;6.70;;;;;;;13.01;35.58;100318.06;5030154;28;20028;-69
2022/03/29 07:18:45;;;;;;;6.70;6.40;;;;;;;12.31;36.09;100314.47;5037139;28;20033;-68
2022/03/29 07:21:11;;;;;;;6.63;6.32;;;;;;;12.86;36.02;100312.03;5050524;28;20392;-68
2022/03/29 07:23:38;;;;;;;6.63;6.32;;;;;;;13.39;35.01;100318.50;5038062;28;20037;-68
2022/03/29 07:26:04;;;;;;;6.55;6.25;;;;;;;13.63;35.03;100325.16;5039587;28;20070;-68
2022/03/29 07:28:30;;;;;;;6.70;6.40;;;;;;;11.95;37.00;100314.50;5046745;28;20026;-68
2022/03/29 07:30:56;;;;;;;6.80;6.50;;;;;;;11.79;37.86;100310.22;5037618;28;20088;-68
2022/03/29 07:33:22;;;;;;;6.90;6.60;;;;;;;12.58;36.03;100301.38;5042087;28;20021;-68
2022/03/29 07:35:47;;;;;;;6.30;6.00;;;;;;;12.49;36.51;100307.88;5038374;28;20382;-69
2022/03/29 07:38:13;;;;;;;6.45;6.15;;;;;;;13.16;34.99;100309.97;5041620;28;20080;-69
2022/03/29 07:40:40;;;;;;;6.63;6.32;;;;;;;13.13;34.80;100302.34;5031684;28;20059;-68
2022/03/29 07:43:08;;;;;;;6.70;6.40;;;;;;;13.50;34.51;100307.25;5044277;28;20056;-67
2022/03/29 07:45:34;;;;;;;6.85;6.55;;;;;;;13.32;34.88;100295.50;5034836;28;20029;-68
2022/03/29 07:48:02;;;;;;;6.80;6.50;;;;;;;12.85;35.77;100297.91;5037003;28;20036;-68
2022/03/29 07:50:27;;;;;;;7.20;6.90;;;;;;;11.93;36.59;100299.78;5040540;28;20017;-67
2022/03/29 07:52:54;;;;;;;6.43;6.13;;;;;;;13.69;34.07;100292.38;5040256;28;20071;-68
2022/03/29 07:55:19;;;;;;;6.50;6.20;;;;;;;14.12;33.35;100296.56;5032420;28;20037;-68
2022/03/29 07:57:45;;;;;;;6.70;6.40;;;;;;;11.46;38.03;100283.31;5034183;28;20553;-68
2022/03/29 08:00:31;;;;;;;7.05;6.75;;;;;;;12.56;35.98;100284.78;5036397;28;20384;-68
2022/03/29 08:03:01;;;;;;;6.40;6.10;;;;;;;12.82;35.02;100270.84;5043378;28;20028;-67
2022/03/29 08:05:29;;;;;;;6.32;6.03;;;;;;;12.25;36.70;100285.97;5035435;28;20036;-67
2022/03/29 08:07:57;;;;;;;6.95;6.65;;;;;;;14.06;34.01;100285.69;5031950;28;20037;-67
2022/03/29 08:10:23;;;;;;;7.00;6.70;;;;;;;14.00;33.76;100280.34;5038133;28;20395;-67
2022/03/29 08:12:49;;;;;;;6.85;6.55;;;;;;;14.45;33.22;100280.56;5042581;28;20456;-67
2022/03/29 08:15:15;;;;;;;7.30;7.00;;;;;;;13.42;34.70;100274.66;5040867;28;20120;-68
2022/03/29 08:17:40;;;;;;;6.65;6.35;;;;;;;13.89;33.24;100272.94;5039216;28;20033;-67
2022/03/29 08:20:06;;;;;;;6.70;6.40;;;;;;;13.97;33.46;100270.91;5030138;28;21667;-68
2022/03/29 08:22:33;;;;;;;7.07;6.78;;;;;;;14.12;33.64;100272.56;5034062;28;20107;-68
2022/03/29 08:24:59;;;;;;;8.23;7.82;;;;;;;14.74;32.72;100263.31;5033126;28;20057;-68
2022/03/29 08:27:24;;;;;;;6.63;6.32;;;;;;;14.33;33.10;100261.69;5035054;28;20036;-68
2022/03/29 08:29:50;;;;;;;6.10;5.90;;;;;;;14.87;32.92;100260.63;5043182;28;20021;-68
2022/03/29 08:32:16;;;;;;;6.50;6.20;;;;;;;15.24;32.33;100255.59;5043453;28;20040;-67
2022/03/29 08:34:42;;;;;;;6.80;6.50;;;;;;;15.59;32.21;100254.19;5033182;28;20477;-68
2022/03/29 08:37:08;;;;;;;6.60;6.30;;;;;;;16.57;30.88;100249.16;5036096;28;20052;-67
2022/03/29 08:39:34;;;;;;;6.68;6.38;;;;;;;15.17;32.19;100256.41;5039883;28;20013;-67
2022/03/29 08:42:07;;;;;;;7.30;7.00;;;;;;;16.45;31.15;100252.75;5040660;28;20036;-69
2022/03/29 08:44:33;;;;;;;6.93;6.63;;;;;;;16.58;29.94;100252.66;5032942;28;20025;-66
2022/03/29 08:47:00;;;;;;;7.03;6.72;;;;;;;17.15;29.72;100247.13;5026125;28;20091;-68
2022/03/29 08:49:27;;;;;;;6.72;6.43;;;;;;;16.74;30.38;100244.06;5030799;28;20025;-68
2022/03/29 08:51:53;;;;;;;7.00;6.70;;;;;;;16.96;29.84;100238.28;5032058;28;20068;-68
2022/03/29 08:54:22;;;;;;;6.95;6.65;;;;;;;15.94;30.65;100237.75;5032032;28;20105;-65
2022/03/29 08:56:47;;;;;;;6.53;6.22;;;;;;;16.58;30.41;100232.03;5031526;28;20119;-64
2022/03/29 08:59:13;;;;;;;6.85;6.55;;;;;;;16.39;30.26;100210.84;5044213;28;20492;-65
2022/03/29 09:01:39;;;;;;;7.47;7.18;;;;;;;16.98;29.30;100226.31;5053166;28;20391;-65
2022/03/29 09:04:15;;;;;;;6.57;6.28;;;;;;;14.91;31.58;100216.47;5043016;28;20030;-65
2022/03/29 09:06:50;;;;;;;6.97;6.68;;;;;;;15.90;31.38;100217.81;5031856;28;20485;-64
2022/03/29 09:09:22;;;;;;;6.57;6.28;;;;;;;15.87;31.68;100216.41;5031322;28;20033;-68
2022/03/29 09:11:47;;;;;;;6.63;6.32;;;;;;;17.18;29.42;100209.16;5032801;28;20805;-64
2022/03/29 09:14:13;;;;;;;6.55;6.25;;;;;;;17.41;29.01;100211.97;5033167;28;20058;-65
2022/03/29 09:16:38;;;;;;;6.93;6.63;;;;;;;17.63;28.56;100206.91;5030071;28;20428;-65
2022/03/29 09:19:04;;;;;;;6.68;6.38;;;;;;;17.30;29.25;100205.50;5031133;28;20033;-64
2022/03/29 09:21:42;;;;;;;6.63;6.32;;;;;;;18.14;28.14;100184.03;5026696;28;20056;-65
2022/03/29 09:24:14;;;;;;;7.00;6.70;;;;;;;18.04;28.63;100189.97;5031516;28;20079;-64
2022/03/29 09:26:42;;;;;;;6.78;6.47;;;;;;;18.18;28.13;100187.88;5037733;28;20039;-65
2022/03/29 09:29:19;;;;;;;7.20;6.90;;;;;;;18.59;27.60;100176.22;5024154;28;20087;-67
2022/03/29 09:31:50;;;;;;;6.57;6.28;;;;;;;18.12;28.50;100168.16;5036388;28;20029;-68
2022/03/29 09:34:17;;;;;;;6.68;6.38;;;;;;;18.52;27.73;100166.63;5043223;28;20029;-67
2022/03/29 09:36:48;;;;;;;6.75;6.45;;;;;;;18.80;27.23;100161.34;5032632;28;20112;-68
2022/03/29 09:39:32;;;;;;;6.68;6.38;;;;;;;18.98;27.14;100155.81;5042483;28;20029;-68
2022/03/29 09:42:00;;;;;;;7.03;6.72;;;;;;;18.85;27.39;100156.06;5036047;28;20029;-67
2022/03/29 09:44:34;;;;;;;6.80;6.50;;;;;;;18.78;27.13;100147.31;5032201;28;20032;-64
2022/03/29 09:47:04;;;;;;;7.53;7.22;;;;;;;18.94;27.63;100145.75;5030269;28;20029;-68
2022/03/29 09:49:30;;;;;;;6.53;6.22;;;;;;;18.60;27.40;100140.22;5030427;28;20035;-68
2022/03/29 09:52:14;;;;;;;7.05;6.75;;;;;;;18.98;27.17;100133.50;5028774;28;20025;-68
2022/03/29 09:54:40;;;;;;;6.50;6.20;;;;;;;19.24;26.40;100129.38;5041368;28;20032;-68
2022/03/29 09:57:05;;;;;;;6.63;6.32;;;;;;;18.88;27.16;100127.94;5039830;28;20057;-68
2022/03/29 09:59:36;;;;;;;6.72;6.43;;;;;;;18.82;27.22;100131.56;5046933;28;20509;-68
2022/03/29 10:02:03;;;;;;;6.80;6.50;;;;;;;19.23;26.53;100120.50;5033679;28;20056;-68
2022/03/29 10:04:30;;;;;;;6.90;6.60;;;;;;;19.38;26.39;100100.31;5036966;28;20060;-67
2022/03/29 10:06:57;;;;;;;6.95;6.65;;;;;;;19.54;25.97;100110.31;5030803;28;20559;-68
2022/03/29 10:09:35;;;;;;;7.50;7.20;;;;;;;19.77;25.18;100109.34;5031744;28;20109;-68
2022/03/29 10:12:04;;;;;;;7.00;6.70;;;;;;;19.93;25.30;100095.06;5039398;28;20040;-67
2022/03/29 10:14:31;;;;;;;6.70;6.40;;;;;;;19.72;25.39;100079.66;5043718;28;20106;-67
2022/03/29 10:16:58;;;;;;;6.65;6.35;;;;;;;20.04;24.66;100083.38;5060113;28;20064;-67
2022/03/29 10:19:25;;;;;;;7.07;6.78;;;;;;;20.48;24.13;100072.66;5033656;28;20477;-68
2022/03/29 10:21:53;;;;;;;7.00;6.70;;;;;;;20.63;24.71;100078.22;5039712;28;20030;-67
2022/03/29 10:24:19;;;;;;;6.90;6.60;;;;;;;20.34;24.08;100074.06;5035966;28;20041;-67
2022/03/29 10:26:48;;;;;;;6.47;6.18;;;;;;;20.57;24.15;100068.47;5039483;28;20533;-68
2022/03/29 10:29:14;;;;;;;6.75;6.45;;;;;;;20.75;23.65;100063.81;5044184;28;20029;-68
2022/03/29 10:31:52;;;;;;;6.70;6.40;;;;;;;19.76;24.32;100049.34;5035319;28;20452;-68
2022/03/29 10:34:25;;;;;;;6.80;6.50;;;;;;;20.06;23.96;100045.44;5040710;28;20029;-68
2022/03/29 10:37:17;;;;;;;6.97;6.68;;;;;;;19.96;23.45;100043.41;5036537;28;20026;-69
2022/03/29 10:39:46;;;;;;;6.70;6.40;;;;;;;20.62;22.94;100038.88;5042628;28;20033;-68
2022/03/29 10:42:32;;;;;;;6.90;6.60;;;;;;;20.15;22.90;100022.41;5032554;28;20021;-68
2022/03/29 10:45:18;;;;;;;6.80;6.50;;;;;;;19.78;23.34;100022.97;5039801;28;20149;-69
2022/03/29 10:48:09;;;;;;;6.63;6.32;;;;;;;20.54;22.47;100020.47;5032491;28;20029;-69
2022/03/29 10:50:46;;;;;;;6.43;6.13;;;;;;;20.76;22.13;100019.63;5039534;28;20029;-68
2022/03/29 10:53:35;;;;;;;6.90;6.60;;;;;;;20.30;22.83;100009.13;5042607;28;20033;-68
2022/03/29 10:56:13;;;;;;;6.90;6.60;;;;;;;19.83;23.06;99998.00;5042517;28;20030;-68
2022/03/29 10:59:04;;;;;;;6.55;6.25;;;;;;;19.66;23.23;99992.66;5044112;28;20060;-68
2022/03/29 11:01:30;;;;;;;6.63;6.32;;;;;;;19.78;23.18;99990.69;5032066;28;20020;-68
2022/03/29 11:04:00;;;;;;;6.88;6.57;;;;;;;19.50;23.46;99962.00;5045037;28;20021;-68
2022/03/29 11:06:26;;;;;;;7.82;7.53;;;;;;;19.66;23.55;99978.38;5031311;28;20029;-68
2022/03/29 11:09:06;;;;;;;6.90;6.60;;;;;;;19.69;23.58;99980.59;5025934;28;20056;-68
2022/03/29 11:11:50;;;;;;;6.65;6.35;;;;;;;20.29;22.95;99974.34;5036552;28;20030;-68
2022/03/29 11:14:29;;;;;;;6.70;6.40;;;;;;;19.95;23.32;99965.59;5030347;28;20079;-68
2022/03/29 11:17:17;;;;;;;6.57;6.28;;;;;;;19.71;23.33;99946.16;5035403;28;20151;-68
2022/03/29 11:19:54;;;;;;;6.63;6.32;;;;;;;19.22;24.06;99949.47;5025425;28;20045;-68
2022/03/29 11:22:26;;;;;;;6.80;6.50;;;;;;;19.84;23.44;99946.63;5029695;28;20116;-68
2022/03/29 11:24:53;;;;;;;6.95;6.65;;;;;;;20.06;23.04;99946.63;5022896;28;20029;-67
2022/03/29 11:27:23;;;;;;;6.53;6.22;;;;;;;19.85;23.37;99945.56;5031827;28;20065;-67
2022/03/29 11:29:50;;;;;;;6.70;6.40;;;;;;;20.03;23.29;99940.91;5029899;28;20034;-67
2022/03/29 11:32:17;;;;;;;6.80;6.50;;;;;;;20.01;23.27;99933.09;5027852;28;20083;-67
2022/03/29 11:34:44;;;;;;;6.88;6.57;;;;;;;20.08;23.12;99932.91;5032561;28;20112;-68
2022/03/29 11:37:25;;;;;;;6.80;6.50;;;;;;;19.78;23.84;99925.28;5041620;28;20025;-67